createdAt,value
2018-06-22T00:01:52.190Z,80.60
2018-06-22T00:04:20.367Z,81.30
2018-06-22T00:06:48.522Z,81.50
2018-06-22T00:09:16.636Z,80.70
2018-06-22T00:11:44.746Z,81.20
2018-06-22T00:14:12.845Z,81.90
2018-06-22T00:16:40.955Z,81.60
2018-06-22T00:19:09.066Z,81.80
2018-06-22T00:21:37.225Z,82.60
2018-06-22T00:24:05.378Z,82.40
2018-06-22T00:26:33.492Z,82.70
2018-06-22T00:29:01.590Z,82.80
2018-06-22T00:31:29.722Z,82.60
2018-06-22T00:33:57.830Z,82.50
2018-06-22T00:36:25.970Z,81.90
2018-06-22T00:38:54.102Z,83.00
2018-06-22T00:41:22.287Z,83.80
2018-06-22T00:43:50.369Z,84.10
2018-06-22T00:46:18.466Z,84.00
2018-06-22T00:48:46.661Z,84.00
2018-06-22T00:51:14.786Z,83.50
2018-06-22T00:53:54.307Z,84.10
2018-06-22T00:56:22.878Z,83.60
2018-06-22T00:58:51.007Z,84.40
2018-06-22T01:01:19.451Z,84.00
2018-06-22T01:03:47.611Z,85.20
2018-06-22T01:06:15.790Z,84.60
2018-06-22T01:08:50.470Z,84.20
2018-06-22T01:11:18.714Z,85.00
2018-06-22T01:13:46.851Z,85.40
2018-06-22T01:16:15.040Z,85.20
2018-06-22T01:18:43.211Z,84.70
2018-06-22T01:21:11.372Z,85.40
2018-06-22T01:23:39.534Z,85.50
2018-06-22T01:26:07.760Z,84.80
2018-06-22T01:28:36.003Z,84.30
2018-06-22T01:31:04.133Z,85.30
2018-06-22T01:33:32.314Z,84.70
2018-06-22T01:36:00.463Z,85.40
2018-06-22T01:38:28.623Z,86.50
2018-06-22T01:40:56.759Z,87.00
2018-06-22T01:43:24.907Z,86.90
2018-06-22T01:45:53.070Z,88.40
2018-06-22T01:48:21.239Z,87.60
2018-06-22T01:50:49.396Z,88.20
2018-06-22T01:53:17.551Z,87.70
2018-06-22T01:55:45.699Z,88.20
2018-06-22T01:58:13.867Z,87.90
2018-06-22T02:00:43.120Z,87.80
2018-06-22T02:03:11.315Z,88.10
2018-06-22T02:05:39.456Z,89.10
2018-06-22T02:08:07.596Z,89.30
2018-06-22T02:10:35.724Z,89.10
